Time;durP1;ratioP1;P1;durP2;ratioP2;P2;SDS_P1;SDS_P2;PMS_P1;PMS_P2;Temp;Humidity;BMP_temperature;BMP_pressure;BME280_temperature;BME280_humidity;BME280_pressure;Samples;Min_cycle;Max_cycle;Signal;HPM_P1;HPM_P2
2022/12/20 00:02:52;;;;;;;48.98;23.60;;;;;;;2.10;100.00;101014.55;3507577;83;98879;-87
2022/12/20 00:07:53;;;;;;;53.13;22.40;;;;;;;2.12;100.00;101004.72;3509956;83;30649;-87
2022/12/20 00:12:54;;;;;;;53.53;24.30;;;;;;;2.13;100.00;101012.57;3502283;83;99090;-87
2022/12/20 00:17:55;;;;;;;49.47;25.93;;;;;;;2.14;100.00;101003.31;3514526;83;32774;-87
2022/12/20 00:22:56;;;;;;;52.70;23.80;;;;;;;2.15;100.00;101009.02;3507095;83;99015;-87
2022/12/20 00:27:57;;;;;;;50.50;24.03;;;;;;;2.12;100.00;101002.83;3513200;82;32450;-88
2022/12/20 00:32:57;;;;;;;51.87;23.70;;;;;;;2.12;100.00;100997.39;3505609;83;99104;-87
2022/12/20 00:37:58;;;;;;;48.40;25.10;;;;;;;2.08;100.00;100985.53;3512069;83;33370;-87
2022/12/20 00:42:59;;;;;;;52.85;24.37;;;;;;;2.06;100.00;100986.41;3506964;83;99105;-87
2022/12/20 00:48:00;;;;;;;50.73;24.40;;;;;;;2.02;100.00;100979.98;3513253;83;27532;-87
2022/12/20 00:53:00;;;;;;;47.13;23.50;;;;;;;2.00;100.00;100989.53;3507323;82;99182;-87
2022/12/20 00:58:01;;;;;;;48.83;23.10;;;;;;;1.94;100.00;100967.16;3513544;83;25950;-88
2022/12/20 01:03:02;;;;;;;45.33;20.68;;;;;;;1.92;100.00;100984.84;3507676;84;98829;-88
2022/12/20 01:08:04;;;;;;;48.93;22.67;;;;;;;1.89;100.00;100978.66;3513046;83;26461;-87
2022/12/20 01:13:04;;;;;;;49.30;23.13;;;;;;;1.85;100.00;100978.48;3505756;82;98952;-88
2022/12/20 01:18:05;;;;;;;48.73;23.90;;;;;;;1.83;100.00;100960.34;3516441;82;26406;-87
2022/12/20 01:23:06;;;;;;;48.50;21.67;;;;;;;1.81;100.00;100957.12;3507366;82;98839;-86
2022/12/20 01:28:07;;;;;;;46.42;21.92;;;;;;;1.82;100.00;100960.11;3514104;83;26623;-86
2022/12/20 01:33:08;;;;;;;52.20;23.07;;;;;;;1.83;100.00;100958.17;3507309;83;98879;-87
2022/12/20 01:38:08;;;;;;;52.27;23.37;;;;;;;1.85;100.00;100958.66;3513672;83;33210;-87
2022/12/20 01:43:13;;;;;;;53.03;23.40;;;;;;;1.86;100.00;100955.65;3507530;83;98770;-87
2022/12/20 01:48:20;;;;;;;44.57;20.07;;;;;;;1.87;100.00;100946.97;3512879;83;25817;-87
2022/12/20 01:53:23;;;;;;;52.63;23.07;;;;;;;1.89;100.00;100963.73;3504281;82;98954;-88
2022/12/20 01:58:25;;;;;;;48.27;22.07;;;;;;;1.90;100.00;100938.19;3511771;83;25840;-88
2022/12/20 02:03:28;;;;;;;50.60;21.50;;;;;;;1.90;100.00;100932.22;3506946;83;98909;-88
2022/12/20 02:08:29;;;;;;;46.70;21.83;;;;;;;1.91;100.00;100932.47;3512225;83;26129;-87
2022/12/20 02:14:07;;;;;;;52.77;22.43;;;;;;;1.92;100.00;100917.78;3506902;84;99079;-89
2022/12/20 02:19:44;;;;;;;48.57;21.33;;;;;;;1.93;100.00;100910.45;3512900;83;26252;-88
2022/12/20 02:25:02;;;;;;;46.42;21.82;;;;;;;1.93;100.00;100924.02;3505790;82;98817;-86
2022/12/20 02:30:15;;;;;;;48.70;22.93;;;;;;;1.92;100.00;100921.84;3512966;83;25969;-88
2022/12/20 02:35:21;;;;;;;48.30;22.87;;;;;;;1.92;100.00;100910.99;3506342;82;98933;-87
2022/12/20 02:40:27;;;;;;;;;;;;;;;1.91;100.00;100903.97;3515423;83;25864;-86
2022/12/20 02:45:33;;;;;;;47.85;21.48;;;;;;;1.93;100.00;100892.81;3503871;82;84618;-88
2022/12/20 02:50:39;;;;;;;49.73;21.87;;;;;;;1.92;100.00;100883.85;3513143;83;25830;-87
2022/12/20 02:55:53;;;;;;;46.63;21.73;;;;;;;1.93;100.00;100892.81;3507801;83;98964;-87
2022/12/20 03:00:58;;;;;;;44.27;21.17;;;;;;;1.93;100.00;100905.84;3511282;83;30340;-86
2022/12/20 03:05:59;;;;;;;47.20;23.17;;;;;;;1.94;100.00;100897.94;3513664;82;25930;-86
2022/12/20 03:11:00;;;;;;;48.80;21.47;;;;;;;1.95;100.00;100910.39;3507203;83;98830;-87
2022/12/20 03:16:00;;;;;;;46.60;23.03;;;;;;;1.96;100.00;100901.67;3514436;82;33189;-86
2022/12/20 03:21:01;;;;;;;47.43;21.17;;;;;;;1.97;100.00;100900.59;3505466;84;99139;-87
2022/12/20 03:26:02;;;;;;;41.60;18.80;;;;;;;1.97;100.00;100909.52;3496901;82;33237;-86
2022/12/20 03:31:03;;;;;;;46.10;20.87;;;;;;;1.99;100.00;100909.22;3507775;83;108302;-86
2022/12/20 03:36:04;;;;;;;42.37;20.23;;;;;;;1.99;100.00;100907.86;3513369;82;33377;-87
2022/12/20 03:41:05;;;;;;;43.17;20.80;;;;;;;1.99;100.00;100907.31;3507682;84;98968;-88
2022/12/20 03:46:06;;;;;;;44.00;21.00;;;;;;;2.01;100.00;100912.41;3511588;83;30663;-86
2022/12/20 03:51:06;;;;;;;46.83;21.97;;;;;;;2.03;100.00;100908.86;3507008;82;99144;-87
2022/12/20 03:56:07;;;;;;;45.30;20.43;;;;;;;2.04;100.00;100902.31;3513510;84;31731;-88
2022/12/20 04:01:27;;;;;;;44.33;20.87;;;;;;;2.07;100.00;100907.14;3504914;83;108169;-88
2022/12/20 04:06:28;;;;;;;46.43;21.10;;;;;;;2.09;100.00;100899.48;3511421;83;28569;-90
2022/12/20 04:11:30;;;;;;;41.63;19.12;;;;;;;2.10;100.00;100887.50;3507332;84;98972;-87
2022/12/20 04:16:31;;;;;;;45.73;20.23;;;;;;;2.11;100.00;100890.45;3515022;83;32128;-87
2022/12/20 04:21:34;;;;;;;41.28;19.17;;;;;;;2.12;100.00;100887.44;3507756;84;99030;-86
2022/12/20 04:26:36;;;;;;;42.85;20.88;;;;;;;2.13;100.00;100895.03;3515383;82;33529;-87
2022/12/20 04:31:37;;;;;;;41.15;19.57;;;;;;;2.14;100.00;100902.84;3505751;82;98855;-88
2022/12/20 04:36:38;;;;;;;47.73;21.10;;;;;;;2.18;100.00;100904.42;3513717;84;31568;-88
2022/12/20 04:41:38;;;;;;;47.05;20.68;;;;;;;2.18;100.00;100902.48;3507418;82;98780;-90
2022/12/20 04:46:39;;;;;;;41.85;20.00;;;;;;;2.19;100.00;100906.80;3511602;83;32241;-88
2022/12/20 04:51:40;;;;;;;40.53;18.77;;;;;;;2.21;100.00;100908.67;3507509;82;98938;-88
2022/12/20 04:56:40;;;;;;;40.77;20.73;;;;;;;2.22;100.00;100912.16;3513515;82;30791;-88
2022/12/20 05:01:41;;;;;;;39.70;19.87;;;;;;;2.23;100.00;100904.27;3506784;83;99038;-88
2022/12/20 05:06:42;;;;;;;40.20;18.70;;;;;;;2.24;100.00;100897.74;3491021;84;28797;-88
2022/12/20 05:11:43;;;;;;;40.47;17.80;;;;;;;2.24;100.00;100899.88;3466101;83;98931;-87
2022/12/20 05:16:44;;;;;;;41.03;20.10;;;;;;;2.27;100.00;100893.03;3473180;83;35314;-89
2022/12/20 05:27:03;;;;;;;39.77;19.53;;;;;;;2.29;100.00;100879.97;3471232;84;29453;-88
2022/12/20 05:32:04;;;;;;;41.03;19.57;;;;;;;2.29;100.00;100886.18;3465215;84;99026;-88
2022/12/20 05:37:05;;;;;;;40.77;20.17;;;;;;;2.29;100.00;100872.60;3469664;84;26053;-88
2022/12/20 05:42:06;;;;;;;41.73;19.67;;;;;;;2.28;100.00;100862.86;3466588;82;98627;-89
2022/12/20 05:47:07;;;;;;;38.63;18.37;;;;;;;2.30;100.00;100869.34;3471021;84;35141;-89
2022/12/20 05:52:08;;;;;;;42.60;19.20;;;;;;;2.29;100.00;100875.89;3465825;82;98940;-89
2022/12/20 05:57:08;;;;;;;39.87;20.13;;;;;;;2.25;100.00;100888.48;3472222;84;35086;-88
2022/12/20 06:02:09;;;;;;;42.60;19.40;;;;;;;2.23;100.00;100891.50;3464527;84;98848;-88
2022/12/20 06:07:10;;;;;;;47.40;21.37;;;;;;;2.19;100.00;100906.80;3469090;83;32839;-88
2022/12/20 06:12:11;;;;;;;39.73;19.00;;;;;;;2.15;100.00;100917.23;3484131;83;98925;-89
2022/12/20 06:17:12;;;;;;;42.20;20.37;;;;;;;2.12;100.00;100921.37;3490404;83;33059;-88
2022/12/20 06:22:13;;;;;;;42.33;21.02;;;;;;;2.07;100.00;100914.70;3487084;82;99050;-88
2022/12/20 06:27:13;;;;;;;41.10;19.80;;;;;;;2.11;100.00;100914.89;3491501;83;32518;-88
2022/12/20 06:32:14;;;;;;;41.63;19.13;;;;;;;2.11;100.00;100899.41;3488489;82;98932;-89
2022/12/20 06:37:15;;;;;;;40.87;20.83;;;;;;;2.11;100.00;100899.41;3494670;83;32454;-89
2022/12/20 06:42:16;;;;;;;38.05;18.15;;;;;;;2.14;100.00;100917.00;3486970;83;98866;-88
2022/12/20 06:47:17;;;;;;;44.30;19.93;;;;;;;2.16;100.00;100903.36;3492762;84;28767;-88
2022/12/20 06:52:17;;;;;;;41.40;20.10;;;;;;;2.19;100.00;100908.73;3488254;82;98675;-86
2022/12/20 06:57:18;;;;;;;39.67;18.07;;;;;;;2.21;100.00;100903.23;3493787;83;25852;-87
2022/12/20 07:02:19;;;;;;;38.17;19.60;;;;;;;2.23;100.00;100902.36;3485586;83;98915;-87
2022/12/20 07:07:20;;;;;;;34.53;18.00;;;;;;;2.28;100.00;100895.98;3491669;83;25817;-87
2022/12/20 07:12:21;;;;;;;36.80;17.63;;;;;;;2.31;100.00;100890.77;3451481;84;98612;-87
2022/12/20 07:17:22;;;;;;;42.37;20.13;;;;;;;2.34;100.00;100883.33;3457869;84;25979;-87
2022/12/20 07:22:22;;;;;;;37.70;19.50;;;;;;;2.38;100.00;100888.40;3451542;84;99174;-89
2022/12/20 07:27:23;;;;;;;40.97;20.87;;;;;;;2.42;100.00;100887.22;3457963;84;33283;-88
2022/12/20 07:32:24;;;;;;;45.20;21.73;;;;;;;2.46;100.00;100893.63;3450741;84;98672;-88
2022/12/20 07:37:25;;;;;;;43.03;20.67;;;;;;;2.50;100.00;100898.13;3457453;84;33167;-88
2022/12/20 07:42:25;;;;;;;48.70;19.93;;;;;;;2.54;100.00;100899.66;3452959;83;98878;-87
2022/12/20 07:47:28;;;;;;;40.70;19.03;;;;;;;2.55;100.00;100900.70;3456178;84;33831;-88
2022/12/20 07:52:31;;;;;;;39.20;19.87;;;;;;;2.57;100.00;100906.62;3452360;84;98885;-88
2022/12/20 07:57:40;;;;;;;41.70;19.30;;;;;;;2.57;100.00;100907.98;3458938;84;33226;-86
2022/12/20 08:03:08;;;;;;;43.30;19.85;;;;;;;2.56;100.00;100915.89;3452854;84;99025;-86
2022/12/20 08:08:09;;;;;;;42.60;19.67;;;;;;;2.53;100.00;100920.61;3464793;83;25835;-86
2022/12/20 08:13:10;;;;;;;46.90;19.47;;;;;;;2.54;100.00;100908.62;3487828;83;99263;-86
2022/12/20 08:18:11;;;;;;;39.57;19.63;;;;;;;2.56;100.00;100908.31;3495245;83;33187;-88
2022/12/20 08:23:11;;;;;;;42.57;21.07;;;;;;;2.57;100.00;100907.98;3489130;82;98911;-89
2022/12/20 08:28:12;;;;;;;44.23;19.27;;;;;;;2.61;100.00;100923.91;3494953;83;33202;-88
2022/12/20 08:33:13;;;;;;;43.17;20.93;;;;;;;2.66;100.00;100909.38;3489183;82;98637;-88
2022/12/20 08:38:14;;;;;;;42.80;20.93;;;;;;;2.71;100.00;100915.49;3493449;83;32430;-88
2022/12/20 08:43:14;;;;;;;43.93;20.60;;;;;;;2.75;100.00;100906.97;3487970;82;99152;-88
2022/12/20 08:48:16;;;;;;;47.03;22.17;;;;;;;2.80;100.00;100901.36;3493501;83;32323;-87
2022/12/20 08:53:16;;;;;;;44.90;20.45;;;;;;;2.85;100.00;100888.99;3489677;82;98909;-88
2022/12/20 08:58:17;;;;;;;45.70;22.43;;;;;;;2.91;100.00;100882.88;3495517;83;32774;-86
2022/12/20 09:03:18;;;;;;;46.33;21.73;;;;;;;2.94;100.00;100884.40;3487742;83;98652;-88
2022/12/20 09:08:19;;;;;;;49.93;21.67;;;;;;;2.98;100.00;100896.80;3489863;83;31700;-88
2022/12/20 09:13:20;;;;;;;46.57;22.53;;;;;;;3.01;100.00;100902.41;3450977;84;99138;-88
2022/12/20 09:18:21;;;;;;;42.67;20.97;;;;;;;3.06;100.00;100883.22;3461186;84;31557;-88
2022/12/20 09:23:21;;;;;;;49.47;24.47;;;;;;;3.11;100.00;100883.08;3454549;83;99037;-88
2022/12/20 09:28:23;;;;;;;44.90;21.47;;;;;;;3.17;100.00;100872.88;3459629;84;31752;-88
2022/12/20 09:33:23;;;;;;;43.50;21.43;;;;;;;3.25;100.00;100859.84;3450494;84;99066;-85
2022/12/20 09:38:26;;;;;;;43.10;20.80;;;;;;;3.33;100.00;100871.30;3455270;84;34928;-88
2022/12/20 09:43:27;;;;;;;43.50;21.20;;;;;;;3.40;100.00;100879.78;3453923;83;99110;-87
2022/12/20 09:48:36;;;;;;;48.17;21.73;;;;;;;3.47;100.00;100878.74;3454144;84;35576;-88
2022/12/20 09:54:15;;;;;;;51.00;24.33;;;;;;;3.56;100.00;100870.82;3448257;83;99063;-88
2022/12/20 09:59:20;;;;;;;51.50;23.70;;;;;;;3.66;100.00;100863.70;3459361;84;27838;-87
2022/12/20 10:04:31;;;;;;;45.40;21.20;;;;;;;3.80;100.00;100858.09;3452800;82;98712;-87
2022/12/20 10:10:10;;;;;;;47.73;21.73;;;;;;;3.90;100.00;100868.11;3470011;84;32312;-88
2022/12/20 10:15:40;;;;;;;42.90;21.67;;;;;;;3.99;100.00;100876.27;3406953;83;98565;-88
2022/12/20 10:21:25;;;;;;;44.60;20.80;;;;;;;4.08;100.00;100884.66;3495599;83;29382;-87
2022/12/20 10:26:28;;;;;;;41.93;20.27;;;;;;;4.16;100.00;100868.85;3494971;83;43786;-84
2022/12/20 10:31:28;;;;;;;42.80;22.48;;;;;;;4.26;100.00;100865.01;3489345;83;99183;-86
2022/12/20 10:36:33;;;;;;;45.93;23.23;;;;;;;4.34;100.00;100875.88;3493149;83;35779;-86
2022/12/20 10:41:47;;;;;;;49.03;23.13;;;;;;;4.40;100.00;100869.69;3489169;82;99054;-86
2022/12/20 10:46:58;;;;;;;45.93;21.70;;;;;;;4.45;99.77;100872.23;3495817;83;27966;-85
2022/12/20 10:52:13;;;;;;;52.27;25.95;;;;;;;4.46;99.50;100877.91;3491711;82;98933;-87
2022/12/20 10:57:22;;;;;;;48.87;22.75;;;;;;;4.42;99.29;100863.36;3495351;83;30204;-87
2022/12/20 11:02:30;;;;;;;46.50;22.80;;;;;;;4.41;99.50;100856.28;3487531;82;98857;-85
2022/12/20 11:07:34;;;;;;;47.73;23.25;;;;;;;4.43;99.36;100845.88;3492257;84;31077;-86
2022/12/20 11:12:35;;;;;;;49.40;25.13;;;;;;;4.41;99.39;100848.92;3488727;82;98858;-86
2022/12/20 11:17:47;;;;;;;47.83;23.63;;;;;;;4.42;99.32;100848.38;3500006;83;35011;-87
2022/12/20 11:23:06;;;;;;;51.57;24.07;;;;;;;4.45;99.48;100847.70;3489963;83;98928;-85
2022/12/20 11:28:30;;;;;;;50.97;23.97;;;;;;;4.50;99.61;100833.91;3493439;83;25832;-86
2022/12/20 11:34:03;;;;;;;50.83;23.10;;;;;;;4.53;99.70;100821.78;3487326;83;98646;-86
2022/12/20 11:39:26;;;;;;;51.18;25.27;;;;;;;4.59;99.64;100811.51;3477244;83;29779;-89
2022/12/20 11:44:48;;;;;;;51.92;27.27;;;;;;;4.66;99.62;100798.16;3487521;83;98631;-88
2022/12/20 11:50:12;;;;;;;50.67;24.63;;;;;;;4.69;99.52;100794.20;3494997;83;32289;-86
2022/12/20 11:55:28;;;;;;;48.87;25.43;;;;;;;4.72;99.44;100785.94;3489042;83;98774;-87
2022/12/20 12:00:35;;;;;;;50.67;25.23;;;;;;;4.75;99.05;100782.56;3491400;83;26941;-87
2022/12/20 12:05:53;;;;;;;54.48;24.45;;;;;;;4.75;99.21;100773.80;3489669;82;98631;-86
2022/12/20 12:10:59;;;;;;;53.20;26.37;;;;;;;4.77;99.29;100782.47;3500247;83;28522;-85
2022/12/20 12:16:14;;;;;;;54.48;27.82;;;;;;;4.79;99.34;100780.20;3509939;82;26657;-86
2022/12/20 12:21:31;;;;;;;57.78;28.25;;;;;;;4.81;99.51;100775.20;3487940;82;98513;-87
2022/12/20 12:26:35;;;;;;;52.73;26.47;;;;;;;4.82;99.96;100773.30;3509041;82;27862;-89
2022/12/20 12:31:47;;;;;;;51.50;26.80;;;;;;;4.80;100.00;100781.02;3502511;84;98510;-86
2022/12/20 12:37:02;;;;;;;59.00;29.18;;;;;;;4.80;100.00;100777.70;3508694;83;31025;-87
2022/12/20 12:42:25;;;;;;;60.12;30.27;;;;;;;4.82;100.00;100760.47;3499505;83;98918;-85
2022/12/20 12:47:42;;;;;;;52.67;24.07;;;;;;;4.82;100.00;100739.21;3503769;84;29851;-85
2022/12/20 12:52:50;;;;;;;54.53;26.77;;;;;;;4.87;100.00;100739.83;3496324;83;98919;-87
2022/12/20 12:58:02;;;;;;;53.23;26.07;;;;;;;4.88;100.00;100725.61;3508434;83;31782;-88
2022/12/20 13:03:09;;;;;;;53.00;25.77;;;;;;;4.88;100.00;100721.52;3499056;83;99082;-86
2022/12/20 13:08:17;;;;;;;57.95;27.98;;;;;;;4.86;100.00;100727.88;3503907;83;32267;-85
2022/12/20 13:13:22;;;;;;;52.85;28.35;;;;;;;4.82;100.00;100736.48;3471238;83;98579;-87
2022/12/20 13:18:25;;;;;;;51.98;26.45;;;;;;;4.78;100.00;100717.81;3472182;83;29763;-86
2022/12/20 13:23:25;;;;;;;52.98;26.12;;;;;;;4.78;100.00;100713.73;3465277;82;98949;-87
2022/12/20 13:28:32;;;;;;;56.73;27.33;;;;;;;4.74;100.00;100727.22;3471093;83;31033;-86
2022/12/20 13:33:41;;;;;;;;;;;;;;;4.74;100.00;100723.72;3466409;83;99138;-87
2022/12/20 13:38:50;;;;;;;57.73;27.25;;;;;;;4.71;100.00;100706.64;3468372;84;28857;-88
2022/12/20 13:43:53;;;;;;;59.83;27.42;;;;;;;4.67;100.00;100715.24;3461280;84;99148;-88
2022/12/20 13:48:59;;;;;;;55.17;27.73;;;;;;;4.61;100.00;100711.93;3470835;85;31022;-86
2022/12/20 13:54:04;;;;;;;56.73;27.53;;;;;;;4.58;100.00;100713.94;3464630;84;98684;-86
2022/12/20 13:59:13;;;;;;;57.55;27.20;;;;;;;4.53;100.00;100709.26;3471574;85;31764;-86
2022/12/20 14:04:15;;;;;;;67.07;30.93;;;;;;;4.49;100.00;100701.50;3460280;83;99258;-87
2022/12/20 14:09:35;;;;;;;65.87;30.70;;;;;;;4.46;100.00;100681.70;3451481;84;30471;-88
2022/12/20 14:14:44;;;;;;;65.87;29.07;;;;;;;4.43;100.00;100675.56;3455232;83;98505;-88
2022/12/20 14:19:45;;;;;;;62.75;29.15;;;;;;;4.40;100.00;100692.02;3459277;84;29487;-87
2022/12/20 14:24:46;;;;;;;50.70;24.33;;;;;;;4.40;100.00;100695.29;3449736;84;98717;-87
2022/12/20 14:29:46;;;;;;;55.13;26.10;;;;;;;4.38;100.00;100694.83;3458177;85;34899;-87
2022/12/20 14:34:47;;;;;;;53.33;25.17;;;;;;;4.36;99.97;100697.87;3431065;84;98767;-87
2022/12/20 14:40:12;;;;;;;57.23;26.90;;;;;;;4.37;100.00;100665.99;3457977;84;34855;-87
2022/12/20 14:45:18;;;;;;;61.88;26.05;;;;;;;4.34;99.85;100659.83;3445739;83;98798;-88
2022/12/20 14:50:23;;;;;;;;;;;;;;;4.33;100.00;100652.78;3461394;84;25910;-87
2022/12/20 14:55:35;;;;;;;61.53;30.20;;;;;;;4.32;100.00;100659.37;3453517;83;84332;-88
2022/12/20 15:00:37;;;;;;;57.58;27.85;;;;;;;4.30;100.00;100650.70;3457562;84;31738;-86
2022/12/20 15:05:45;;;;;;;63.83;30.73;;;;;;;4.31;100.00;100660.50;3450804;84;98906;-88
2022/12/20 15:10:58;;;;;;;60.70;28.13;;;;;;;4.31;100.00;100659.14;3459736;84;26527;-89
2022/12/20 15:16:03;;;;;;;62.70;29.02;;;;;;;4.31;100.00;100655.83;3506785;82;30076;-89
2022/12/20 15:21:18;;;;;;;65.07;30.50;;;;;;;4.30;100.00;100654.23;3500406;84;98961;-87
2022/12/20 15:26:24;;;;;;;65.70;33.73;;;;;;;4.29;100.00;100656.73;3506423;82;26244;-88
2022/12/20 15:31:27;;;;;;;64.12;30.85;;;;;;;4.28;100.00;100651.61;3498555;82;99094;-88
2022/12/20 15:36:29;;;;;;;69.83;31.87;;;;;;;4.26;100.00;100660.11;3506361;82;27963;-88
2022/12/20 15:41:33;;;;;;;63.87;30.45;;;;;;;4.24;99.87;100639.22;3496500;82;99089;-90
2022/12/20 15:46:34;;;;;;;63.33;31.05;;;;;;;4.22;99.90;100630.59;3507394;83;30419;-89
2022/12/20 15:51:39;;;;;;;65.53;31.23;;;;;;;4.20;99.87;100637.48;3500745;82;98703;-90
2022/12/20 15:56:39;;;;;;;66.77;31.17;;;;;;;4.21;99.85;100635.00;3502909;83;27892;-87
2022/12/20 16:01:40;;;;;;;63.93;29.90;;;;;;;4.19;99.78;100636.68;3504604;82;98761;-88
2022/12/20 16:06:43;;;;;;;58.50;28.90;;;;;;;4.19;99.78;100630.42;3512008;82;34833;-87
2022/12/20 16:11:44;;;;;;;61.50;30.53;;;;;;;4.19;99.75;100631.23;3489514;83;98846;-87
2022/12/20 16:16:48;;;;;;;72.47;31.43;;;;;;;4.17;99.65;100638.13;3471272;84;26337;-86
2022/12/20 16:21:51;;;;;;;65.90;31.03;;;;;;;4.18;99.44;100645.98;3462959;83;99326;-87
2022/12/20 16:26:52;;;;;;;57.45;27.50;;;;;;;4.18;99.36;100635.64;3469371;84;30367;-87
2022/12/20 16:31:52;;;;;;;63.03;30.60;;;;;;;4.16;99.38;100622.34;3461846;82;98689;-87
2022/12/20 16:36:53;;;;;;;67.05;30.05;;;;;;;4.15;99.20;100616.67;3468592;84;28923;-88
2022/12/20 16:41:54;;;;;;;60.47;30.13;;;;;;;4.16;99.15;100607.95;3464637;82;98793;-88
2022/12/20 16:46:55;;;;;;;59.93;28.30;;;;;;;4.17;99.16;100617.16;3471528;84;34902;-88
2022/12/20 16:51:55;;;;;;;65.23;29.53;;;;;;;4.14;98.99;100607.48;3465094;83;98918;-86
2022/12/20 16:56:56;;;;;;;61.40;30.12;;;;;;;4.12;98.90;100607.81;3469498;84;34814;-87
2022/12/20 17:01:57;;;;;;;65.10;29.53;;;;;;;4.10;98.83;100604.60;3464478;83;98892;-88
2022/12/20 17:06:58;;;;;;;62.93;29.93;;;;;;;4.07;98.88;100602.55;3470985;84;26565;-88
2022/12/20 17:11:59;;;;;;;59.13;29.05;;;;;;;4.06;98.85;100602.33;3471389;82;98555;-89
2022/12/20 17:16:59;;;;;;;70.60;31.97;;;;;;;4.04;98.81;100594.25;3496329;83;32465;-86
2022/12/20 17:22:00;;;;;;;71.70;32.43;;;;;;;4.06;98.83;100596.06;3490156;82;98844;-87
2022/12/20 17:27:01;;;;;;;69.73;32.40;;;;;;;4.07;98.82;100588.12;3496182;83;32511;-88
2022/12/20 17:32:06;;;;;;;71.50;30.90;;;;;;;4.09;98.80;100582.58;3489123;82;98758;-85
2022/12/20 17:37:07;;;;;;;62.10;29.20;;;;;;;4.11;98.74;100577.62;3494670;83;25928;-87
2022/12/20 17:42:12;;;;;;;57.73;29.77;;;;;;;4.14;98.67;100579.67;3490486;83;98747;-87
2022/12/20 17:47:15;;;;;;;71.37;33.03;;;;;;;4.16;98.64;100564.37;3494734;84;26327;-87
2022/12/20 17:52:16;;;;;;;75.08;37.03;;;;;;;4.20;98.84;100567.45;3489381;82;98921;-88
2022/12/20 17:57:16;;;;;;;71.73;34.70;;;;;;;4.20;98.86;100562.00;3496105;83;25773;-88
2022/12/20 18:02:23;;;;;;;76.13;36.13;;;;;;;4.21;98.91;100573.70;3488463;83;99022;-88
2022/12/20 18:07:24;;;;;;;72.65;36.70;;;;;;;4.17;98.95;100549.61;3494928;83;35406;-89
2022/12/20 18:12:25;;;;;;;75.00;35.63;;;;;;;4.14;98.97;100550.30;3489083;82;98916;-90
2022/12/20 18:17:26;;;;;;;77.30;37.03;;;;;;;4.12;98.84;100550.62;3506500;82;32512;-90
2022/12/20 18:22:26;;;;;;;73.63;34.47;;;;;;;4.10;98.75;100558.88;3504142;83;98918;-90
2022/12/20 18:27:27;;;;;;;77.67;40.10;;;;;;;4.09;98.71;100540.95;3505968;83;32562;-88
2022/12/20 18:32:28;;;;;;;70.90;32.53;;;;;;;4.09;98.69;100553.20;3500202;83;99051;-90
2022/12/20 18:37:29;;;;;;;78.50;35.27;;;;;;;4.10;98.58;100560.24;3504252;83;32539;-89
2022/12/20 18:42:30;;;;;;;73.05;31.95;;;;;;;4.09;98.69;100549.91;3501178;82;98962;-90
2022/12/20 18:47:31;;;;;;;66.53;32.13;;;;;;;4.08;98.47;100538.78;3501864;83;28133;-88
2022/12/20 18:52:32;;;;;;;60.73;30.63;;;;;;;4.10;98.02;100541.96;3502140;83;99008;-89
2022/12/20 18:57:32;;;;;;;63.80;29.20;;;;;;;4.10;98.08;100526.98;3505855;83;26423;-89
2022/12/20 19:02:33;;;;;;;85.53;40.97;;;;;;;4.10;98.06;100522.12;3498825;83;98942;-89
2022/12/20 19:07:34;;;;;;;57.80;28.03;;;;;;;4.11;97.97;100512.81;3498452;84;26152;-87
2022/12/20 19:12:35;;;;;;;56.93;25.97;;;;;;;4.13;97.97;100520.88;3493453;84;98803;-89
2022/12/20 19:17:35;;;;;;;58.10;25.80;;;;;;;4.18;97.70;100502.17;3505978;82;26258;-88
2022/12/20 19:22:36;;;;;;;56.58;24.57;;;;;;;4.23;97.39;100497.34;3502557;82;98787;-87
2022/12/20 19:27:37;;;;;;;48.37;24.13;;;;;;;4.28;97.21;100494.41;3505317;82;33734;-87
2022/12/20 19:32:38;;;;;;;48.50;23.27;;;;;;;4.35;97.14;100507.48;3501538;82;98755;-89
2022/12/20 19:37:39;;;;;;;47.67;21.47;;;;;;;4.40;96.84;100513.54;3496180;83;33258;-88
2022/12/20 19:42:43;;;;;;;51.97;25.37;;;;;;;4.46;96.56;100529.10;3502796;82;99080;-87
2022/12/20 19:47:44;;;;;;;48.77;23.40;;;;;;;4.50;96.60;100526.76;3505085;83;26247;-85
2022/12/20 19:52:45;;;;;;;53.67;25.43;;;;;;;4.52;96.13;100521.76;3496584;82;98948;-87
2022/12/20 19:57:46;;;;;;;49.60;23.87;;;;;;;4.57;96.16;100531.65;3506038;83;33266;-87
2022/12/20 20:02:47;;;;;;;53.57;24.43;;;;;;;4.57;95.84;100520.20;3495965;84;99082;-87
2022/12/20 20:07:49;;;;;;;53.03;24.37;;;;;;;4.58;95.54;100527.23;3504571;82;33176;-88
2022/12/20 20:12:50;;;;;;;53.25;25.80;;;;;;;4.56;95.36;100521.33;3492383;83;98832;-86
2022/12/20 20:17:51;;;;;;;51.68;24.23;;;;;;;4.55;95.33;100517.02;3493581;83;33277;-89
2022/12/20 20:22:52;;;;;;;54.83;25.43;;;;;;;4.53;95.12;100518.48;3478513;82;99217;-85
2022/12/20 20:27:52;;;;;;;64.70;30.77;;;;;;;4.51;94.96;100532.98;3492119;83;33202;-86
2022/12/20 20:32:53;;;;;;;63.03;30.07;;;;;;;4.49;95.23;100511.55;3490126;83;98827;-88
2022/12/20 20:37:54;;;;;;;50.57;24.50;;;;;;;4.48;95.37;100500.97;3488887;83;32042;-88
2022/12/20 20:42:55;;;;;;;51.70;26.20;;;;;;;4.43;95.59;100496.50;3486480;82;98742;-88
2022/12/20 20:47:56;;;;;;;52.87;26.40;;;;;;;4.41;95.95;100497.97;3495818;83;32170;-87
2022/12/20 20:52:57;;;;;;;57.90;25.83;;;;;;;4.40;96.10;100500.47;3489306;82;98870;-87
2022/12/20 20:57:58;;;;;;;53.90;25.80;;;;;;;4.38;96.27;100500.02;3496171;83;31664;-88
2022/12/20 21:02:58;;;;;;;53.67;25.27;;;;;;;4.33;96.53;100501.58;3488796;83;98780;-87
2022/12/20 21:07:59;;;;;;;55.90;27.23;;;;;;;4.30;96.46;100503.04;3495438;83;31636;-87
2022/12/20 21:13:00;;;;;;;50.70;25.07;;;;;;;4.28;96.53;100512.67;3486037;82;98509;-87
2022/12/20 21:18:01;;;;;;;51.27;24.77;;;;;;;4.24;96.62;100498.12;3472608;83;31638;-88
2022/12/20 21:23:02;;;;;;;54.87;24.90;;;;;;;4.21;96.85;100487.32;3464364;84;98860;-87
2022/12/20 21:28:03;;;;;;;61.33;28.20;;;;;;;4.20;97.06;100479.50;3468663;83;26483;-88
2022/12/20 21:33:04;;;;;;;53.23;25.70;;;;;;;4.20;97.23;100484.95;3465205;82;98867;-89
2022/12/20 21:38:05;;;;;;;54.93;26.67;;;;;;;4.16;97.19;100471.77;3470159;84;35144;-90
2022/12/20 21:43:06;;;;;;;56.37;25.93;;;;;;;4.07;97.23;100460.94;3464234;82;98943;-89
2022/12/20 21:48:06;;;;;;;57.63;26.80;;;;;;;4.03;97.36;100455.11;3470301;84;34890;-89
2022/12/20 21:53:07;;;;;;;63.87;29.30;;;;;;;4.01;97.43;100446.48;3464754;82;98939;-89
2022/12/20 21:58:08;;;;;;;58.57;28.77;;;;;;;3.93;97.46;100448.14;3470405;83;34897;-89
2022/12/20 22:03:09;;;;;;;60.17;28.45;;;;;;;3.91;97.46;100442.80;3465536;83;98838;-89
2022/12/20 22:08:09;;;;;;;55.67;27.27;;;;;;;3.90;97.65;100448.83;3472451;83;26356;-89
2022/12/20 22:13:12;;;;;;;57.00;26.73;;;;;;;3.88;97.69;100437.45;3463700;82;98834;-89
2022/12/20 22:18:13;;;;;;;58.25;27.37;;;;;;;3.88;97.73;100444.26;3460426;84;34699;-89
2022/12/20 22:23:14;;;;;;;59.63;27.93;;;;;;;3.89;97.79;100445.07;3453888;83;98908;-90
2022/12/20 22:28:15;;;;;;;57.70;27.33;;;;;;;3.89;97.75;100424.65;3461418;84;33206;-89
2022/12/20 22:33:15;;;;;;;59.13;27.60;;;;;;;3.87;97.75;100429.64;3454903;84;98807;-88
2022/12/20 22:38:16;;;;;;;55.17;28.07;;;;;;;3.87;97.76;100441.31;3458484;84;33145;-88
2022/12/20 22:43:17;;;;;;;54.20;27.82;;;;;;;3.87;97.74;100438.59;3453851;84;98923;-88
2022/12/20 22:48:18;;;;;;;57.67;27.17;;;;;;;3.86;97.73;100433.47;3451529;84;32428;-88
2022/12/20 22:53:19;;;;;;;55.08;26.37;;;;;;;3.85;97.66;100404.11;3450826;84;98729;-89
2022/12/20 22:58:20;;;;;;;52.07;25.10;;;;;;;3.84;97.71;100407.97;3436198;84;28564;-89
2022/12/20 23:03:22;;;;;;;49.33;25.95;;;;;;;3.83;97.66;100412.38;3453602;84;98833;-89
2022/12/20 23:08:24;;;;;;;57.73;25.70;;;;;;;3.81;97.47;100414.06;3461392;84;26409;-89
2022/12/20 23:18:44;;;;;;;56.08;27.17;;;;;;;3.65;97.44;100394.01;3497484;83;33023;-89
2022/12/20 23:23:45;;;;;;;57.20;27.37;;;;;;;3.75;97.38;100400.42;3491715;83;98783;-89